createdAt,value
2019-06-27T00:00:49.679Z,11.4
2019-06-27T00:02:49.637Z,11.5
2019-06-27T00:04:50.069Z,11.5
2019-06-27T00:06:50.159Z,11.6
2019-06-27T00:08:50.179Z,11.5
2019-06-27T00:10:50.156Z,11.5
2019-06-27T00:12:50.158Z,12.1
2019-06-27T00:14:50.180Z,12.1
2019-06-27T00:16:50.264Z,11.5
2019-06-27T00:18:50.321Z,11.6
2019-06-27T00:20:50.332Z,11.0
2019-06-27T00:22:50.418Z,11.0
2019-06-27T00:24:50.460Z,11.1
2019-06-27T00:26:57.756Z,11.6
2019-06-27T00:28:49.818Z,12.1
2019-06-27T00:30:49.833Z,12.0
2019-06-27T00:32:49.811Z,11.8
2019-06-27T00:34:50.170Z,11.8
2019-06-27T00:36:50.193Z,11.4
2019-06-27T00:38:50.245Z,11.9
2019-06-27T00:40:50.224Z,11.4
2019-06-27T00:42:50.338Z,11.4
2019-06-27T00:44:50.338Z,12.1
2019-06-27T00:46:50.443Z,11.9
2019-06-27T00:48:50.467Z,12.1
2019-06-27T00:50:49.588Z,11.6
2019-06-27T00:52:49.540Z,11.6
2019-06-27T00:54:50.518Z,12.1
2019-06-27T00:56:49.748Z,11.6
2019-06-27T00:58:49.747Z,11.6
2019-06-27T01:00:49.824Z,11.4
2019-06-27T01:02:49.752Z,11.4
2019-06-27T01:04:50.111Z,11.8
2019-06-27T01:06:50.384Z,11.6
2019-06-27T01:08:50.507Z,11.2
2019-06-27T01:10:50.478Z,11.4
2019-06-27T01:12:50.480Z,11.4
2019-06-27T01:14:49.566Z,12.8
2019-06-27T01:16:49.826Z,12.3
2019-06-27T01:18:49.853Z,12.8
2019-06-27T01:20:50.176Z,12.8
2019-06-27T01:22:50.329Z,12.7
2019-06-27T01:24:50.384Z,12.6
2019-06-27T01:26:49.745Z,12.1
2019-06-27T01:28:49.846Z,12.4
2019-06-27T01:30:49.841Z,13.8
2019-06-27T01:32:49.829Z,13.8
2019-06-27T01:34:50.104Z,12.8
2019-06-27T01:36:50.223Z,12.7
2019-06-27T01:38:50.296Z,12.4
2019-06-27T01:40:50.307Z,12.4
2019-06-27T01:42:50.235Z,12.4
2019-06-27T01:44:50.227Z,13.1
2019-06-27T01:46:50.291Z,12.4
2019-06-27T01:48:50.307Z,13.7
2019-06-27T01:50:50.368Z,13.7
2019-06-27T01:52:50.344Z,13.4
2019-06-27T01:54:50.436Z,13.4
2019-06-27T01:56:49.572Z,13.0
2019-06-27T01:58:49.630Z,13.0
2019-06-27T02:00:49.660Z,14.0
2019-06-27T02:02:49.830Z,14.3
2019-06-27T02:04:50.108Z,14.4
2019-06-27T02:06:50.360Z,14.6
2019-06-27T02:08:49.904Z,14.0
2019-06-27T02:10:49.917Z,14.0
2019-06-27T02:12:50.025Z,14.0
2019-06-27T02:14:50.165Z,13.9
2019-06-27T02:16:50.195Z,14.4
2019-06-27T02:18:50.229Z,14.4
2019-06-27T02:20:50.241Z,14.4
2019-06-27T02:22:50.234Z,13.8
2019-06-27T02:24:50.271Z,14.2
2019-06-27T02:26:50.361Z,14.5
2019-06-27T02:28:50.365Z,14.6
2019-06-27T02:30:50.294Z,14.6
2019-06-27T02:32:50.300Z,14.2
2019-06-27T02:34:49.714Z,14.5
2019-06-27T02:36:49.822Z,14.4
2019-06-27T02:38:49.838Z,14.4
2019-06-27T02:40:49.867Z,13.7
2019-06-27T02:42:49.927Z,13.8
2019-06-27T02:44:49.991Z,14.2
2019-06-27T02:46:50.160Z,14.6
2019-06-27T02:48:50.173Z,14.6
2019-06-27T02:50:50.206Z,14.1
2019-06-27T02:52:50.266Z,14.3
2019-06-27T02:54:50.346Z,15.0
2019-06-27T02:56:50.478Z,15.0
2019-06-27T02:58:50.485Z,15.0
2019-06-27T03:00:49.556Z,15.5
2019-06-27T03:02:50.506Z,14.4
2019-06-27T03:04:49.815Z,15.3
2019-06-27T03:06:50.133Z,15.7
2019-06-27T03:08:50.283Z,15.7
2019-06-27T03:10:50.336Z,15.9
2019-06-27T03:12:50.405Z,15.1
2019-06-27T03:14:50.436Z,15.4
2019-06-27T03:16:50.491Z,15.4
2019-06-27T03:18:50.544Z,15.1
2019-06-27T03:20:49.633Z,15.7
2019-06-27T03:22:49.808Z,15.2
2019-06-27T03:24:49.825Z,15.7
2019-06-27T03:26:49.955Z,15.7
2019-06-27T03:28:54.119Z,15.3
2019-06-27T03:30:50.426Z,15.3
2019-06-27T03:32:50.475Z,15.4
2019-06-27T03:34:50.053Z,15.2
2019-06-27T03:36:50.284Z,15.2
2019-06-27T03:38:50.440Z,15.5
2019-06-27T03:40:50.457Z,15.0
2019-06-27T03:42:50.435Z,15.2
2019-06-27T03:44:50.478Z,15.5
2019-06-27T03:46:49.694Z,15.5
2019-06-27T03:48:49.715Z,15.0
2019-06-27T03:50:49.686Z,14.7
2019-06-27T03:52:49.859Z,15.3
2019-06-27T03:54:49.842Z,15.3
2019-06-27T03:56:49.982Z,15.1
2019-06-27T03:59:11.952Z,15.1
2019-06-27T04:00:49.866Z,15.0
2019-06-27T04:02:49.954Z,15.0
2019-06-27T04:04:50.167Z,15.4
2019-06-27T04:06:50.353Z,15.5
2019-06-27T04:08:50.428Z,14.9
2019-06-27T04:10:49.632Z,15.2
2019-06-27T04:12:49.633Z,15.5
2019-06-27T04:14:49.820Z,15.5
2019-06-27T04:16:49.984Z,15.8
2019-06-27T04:18:50.110Z,15.1
2019-06-27T04:20:50.097Z,15.1
2019-06-27T04:22:50.154Z,15.7
2019-06-27T04:24:50.122Z,15.7
2019-06-27T04:26:50.334Z,15.7
2019-06-27T04:28:50.310Z,15.0
2019-06-27T04:30:50.466Z,13.9
2019-06-27T04:32:50.530Z,14.1
2019-06-27T04:34:49.688Z,14.1
2019-06-27T04:36:49.818Z,14.1
2019-06-27T04:38:49.848Z,13.1
2019-06-27T04:40:49.877Z,12.6
2019-06-27T04:42:49.899Z,12.3
2019-06-27T04:44:49.890Z,12.3
2019-06-27T04:46:50.032Z,11.7
2019-06-27T04:48:50.184Z,11.7
2019-06-27T04:50:50.230Z,12.2
2019-06-27T04:52:50.476Z,12.2
2019-06-27T04:54:50.505Z,11.1
2019-06-27T04:56:49.774Z,11.6
2019-06-27T04:58:49.810Z,11.6
2019-06-27T05:00:49.826Z,10.5
2019-06-27T05:02:49.861Z,10.5
2019-06-27T05:04:50.280Z,10.7
2019-06-27T05:06:49.614Z,10.5
2019-06-27T05:08:49.613Z,10.1
2019-06-27T05:10:49.706Z,10.2
2019-06-27T05:12:49.701Z,10.2
2019-06-27T05:14:49.776Z,9.9
2019-06-27T05:16:50.084Z,9.6
2019-06-27T05:18:50.182Z,9.4
2019-06-27T05:20:50.196Z,9.4
2019-06-27T05:22:50.118Z,9.9
2019-06-27T05:24:50.135Z,9.6
2019-06-27T05:26:50.237Z,9.8
2019-06-27T05:28:50.303Z,9.4
2019-06-27T05:30:51.844Z,9.4
2019-06-27T05:32:49.908Z,10.1
2019-06-27T05:34:50.212Z,9.2
2019-06-27T05:36:49.804Z,9.3
2019-06-27T05:38:49.845Z,10.1
2019-06-27T05:40:49.837Z,9.0
2019-06-27T05:42:49.861Z,9.0
2019-06-27T05:44:49.796Z,9.1
2019-06-27T05:46:49.998Z,8.9
2019-06-27T05:48:50.054Z,9.7
2019-06-27T05:50:50.047Z,9.2
2019-06-27T05:52:50.093Z,9.2
2019-06-27T05:54:50.176Z,8.7
2019-06-27T05:56:50.261Z,8.6
2019-06-27T05:58:52.407Z,8.3
2019-06-27T06:00:50.464Z,8.3
2019-06-27T06:02:50.456Z,8.3
2019-06-27T06:04:49.892Z,8.3
2019-06-27T06:06:50.099Z,7.5
2019-06-27T06:08:50.127Z,8.3
2019-06-27T06:10:50.113Z,8.3
2019-06-27T06:12:50.112Z,7.9
2019-06-27T06:14:50.148Z,7.6
2019-06-27T06:16:50.339Z,7.2
2019-06-27T06:18:50.303Z,7.1
2019-06-27T06:20:50.240Z,7.1
2019-06-27T06:22:50.258Z,7.0
2019-06-27T06:24:50.264Z,7.0
2019-06-27T06:26:50.490Z,6.9
2019-06-27T06:28:50.467Z,6.3
2019-06-27T06:30:50.529Z,6.3
2019-06-27T06:32:49.725Z,6.6
2019-06-27T06:34:50.039Z,6.6
2019-06-27T06:36:50.174Z,7.0
2019-06-27T06:38:50.227Z,7.0
2019-06-27T06:40:50.307Z,7.3
2019-06-27T06:42:50.666Z,6.9
2019-06-27T06:44:49.654Z,7.4
2019-06-27T06:46:49.804Z,7.1
2019-06-27T06:48:49.836Z,7.1
2019-06-27T06:50:49.841Z,6.7
2019-06-27T06:52:49.845Z,6.9
2019-06-27T06:54:49.865Z,7.9
2019-06-27T06:56:50.079Z,6.9
2019-06-27T06:58:50.195Z,6.9
2019-06-27T07:01:02.250Z,7.7
2019-06-27T07:02:50.538Z,7.6
2019-06-27T07:04:50.084Z,7.7
2019-06-27T07:06:50.201Z,7.9
2019-06-27T07:08:50.277Z,7.9
2019-06-27T07:10:50.247Z,7.7
2019-06-27T07:12:50.216Z,7.7
2019-06-27T07:14:50.502Z,7.9
2019-06-27T07:16:49.635Z,7.8
2019-06-27T07:18:49.694Z,7.8
2019-06-27T07:20:49.721Z,7.9
2019-06-27T07:22:49.640Z,7.9
2019-06-27T07:24:49.632Z,7.8
2019-06-27T07:26:49.933Z,7.8
2019-06-27T07:28:50.054Z,7.8
2019-06-27T07:30:50.015Z,7.5
2019-06-27T07:32:49.969Z,7.7
2019-06-27T07:34:50.315Z,7.8
2019-06-27T07:36:50.334Z,7.8
2019-06-27T07:38:50.302Z,7.8
2019-06-27T07:40:50.350Z,7.3
2019-06-27T07:42:50.309Z,7.8
2019-06-27T07:44:50.359Z,7.7
2019-06-27T07:46:50.451Z,7.7
2019-06-27T07:48:49.575Z,7.6
2019-06-27T07:50:50.477Z,7.4
2019-06-27T07:52:50.398Z,7.4
2019-06-27T07:54:50.402Z,7.8
2019-06-27T07:56:50.514Z,7.8
2019-06-27T07:58:49.644Z,7.2
2019-06-27T08:00:49.591Z,7.8
2019-06-27T08:02:50.490Z,8.0
2019-06-27T08:04:49.849Z,8.4
2019-06-27T08:06:50.092Z,8.4
2019-06-27T08:08:50.096Z,8.1
2019-06-27T08:10:50.257Z,8.3
2019-06-27T08:12:50.174Z,8.1
2019-06-27T08:14:50.167Z,8.1
2019-06-27T08:16:50.352Z,8.0
2019-06-27T08:18:50.350Z,8.6
2019-06-27T08:20:50.313Z,8.5
2019-06-27T08:22:50.304Z,9.0
2019-06-27T08:24:50.252Z,9.0
2019-06-27T08:26:50.457Z,8.7
2019-06-27T08:28:50.381Z,8.5
2019-06-27T08:30:49.570Z,9.1
2019-06-27T08:32:49.591Z,8.8
2019-06-27T08:34:49.775Z,8.8
2019-06-27T08:36:50.016Z,9.3
2019-06-27T08:38:50.092Z,9.3
2019-06-27T08:40:50.084Z,9.1
2019-06-27T08:42:50.078Z,9.1
2019-06-27T08:44:50.078Z,8.4
2019-06-27T08:46:50.193Z,8.3
2019-06-27T08:48:50.143Z,7.5
2019-06-27T08:50:50.118Z,8.0
2019-06-27T08:52:50.111Z,8.4
2019-06-27T08:54:50.084Z,8.4
2019-06-27T08:56:50.168Z,7.7
2019-06-27T08:58:50.166Z,8.2
2019-06-27T09:00:50.186Z,7.3
2019-06-27T09:02:50.178Z,7.3
2019-06-27T09:04:50.380Z,7.3
2019-06-27T09:06:50.401Z,8.0
2019-06-27T09:08:50.417Z,8.0
2019-06-27T09:10:50.542Z,8.0
2019-06-27T09:12:49.598Z,8.0
2019-06-27T09:14:50.520Z,7.8
2019-06-27T09:16:49.621Z,7.6
2019-06-27T09:18:49.703Z,6.8
2019-06-27T09:20:49.617Z,8.1
2019-06-27T09:22:49.642Z,8.1
2019-06-27T09:24:49.611Z,7.1
2019-06-27T09:26:49.802Z,6.7
2019-06-27T09:28:49.775Z,6.7
2019-06-27T09:30:49.976Z,6.4
2019-06-27T09:32:49.986Z,6.4
2019-06-27T09:34:50.287Z,6.8
2019-06-27T09:36:50.421Z,7.2
2019-06-27T09:38:50.415Z,7.2
2019-06-27T09:40:50.378Z,7.9
2019-06-27T09:42:50.377Z,7.9
2019-06-27T09:44:50.437Z,7.4
2019-06-27T09:46:49.646Z,7.6
2019-06-27T09:48:49.632Z,7.1
2019-06-27T09:50:49.588Z,7.1
2019-06-27T09:52:49.562Z,6.2
2019-06-27T09:54:49.532Z,5.6
2019-06-27T09:56:49.611Z,5.9
2019-06-27T09:58:49.545Z,5.0
2019-06-27T10:00:49.747Z,5.0
2019-06-27T10:02:49.812Z,4.9
2019-06-27T10:04:50.125Z,5.3
2019-06-27T10:06:50.227Z,4.2
2019-06-27T10:08:50.171Z,4.7
2019-06-27T10:10:50.275Z,4.7
2019-06-27T10:12:50.188Z,4.3
2019-06-27T10:14:50.202Z,4.0
2019-06-27T10:16:50.208Z,4.2
2019-06-27T10:18:50.383Z,4.6
2019-06-27T10:20:50.411Z,4.6
2019-06-27T10:22:50.384Z,4.6
2019-06-27T10:24:50.393Z,5.1
2019-06-27T10:26:50.488Z,4.4
2019-06-27T10:28:50.477Z,4.4
2019-06-27T10:30:50.496Z,4.7
2019-06-27T10:33:00.377Z,3.8
2019-06-27T10:34:49.791Z,4.2
2019-06-27T10:36:49.993Z,4.0
2019-06-27T10:38:49.961Z,4.0
2019-06-27T10:40:50.004Z,4.8
2019-06-27T10:42:49.955Z,5.0
2019-06-27T10:44:49.978Z,4.8
2019-06-27T10:46:50.130Z,5.2
2019-06-27T10:48:50.069Z,5.2
2019-06-27T10:50:50.064Z,5.2
2019-06-27T10:52:50.044Z,5.5
2019-06-27T10:54:50.087Z,4.8
2019-06-27T10:56:50.131Z,4.8
2019-06-27T10:58:50.153Z,5.3
2019-06-27T11:00:50.122Z,5.4
2019-06-27T11:02:50.079Z,5.1
2019-06-27T11:04:50.511Z,4.9
2019-06-27T11:06:50.499Z,4.9
2019-06-27T11:08:50.489Z,4.9
2019-06-27T11:10:50.487Z,6.8
2019-06-27T11:12:50.438Z,5.1
2019-06-27T11:14:59.805Z,5.1
2019-06-27T11:16:50.135Z,5.3
2019-06-27T11:18:50.098Z,5.3
2019-06-27T11:20:50.130Z,5.3
2019-06-27T11:22:50.162Z,5.2
2019-06-27T11:24:50.153Z,5.0
2019-06-27T11:26:50.310Z,4.9
2019-06-27T11:28:50.505Z,4.9
2019-06-27T11:30:49.608Z,5.1
2019-06-27T11:32:49.564Z,5.0
2019-06-27T11:34:49.816Z,5.0
2019-06-27T11:36:49.936Z,5.0
2019-06-27T11:38:49.891Z,5.0
2019-06-27T11:40:49.891Z,5.0
2019-06-27T11:42:49.840Z,4.6
2019-06-27T11:44:49.793Z,4.9
2019-06-27T11:46:49.951Z,4.9
2019-06-27T11:48:49.969Z,4.8
2019-06-27T11:50:50.117Z,4.8
2019-06-27T11:52:50.295Z,4.7
2019-06-27T11:54:50.219Z,4.7
2019-06-27T11:56:50.266Z,4.3
2019-06-27T11:58:50.245Z,4.9
2019-06-27T12:00:50.207Z,4.4
2019-06-27T12:02:50.204Z,4.3
2019-06-27T12:04:49.578Z,4.3
2019-06-27T12:06:49.682Z,4.3
2019-06-27T12:08:49.664Z,4.1
2019-06-27T12:10:49.713Z,4.2
2019-06-27T12:12:49.721Z,3.4
2019-06-27T12:14:49.758Z,3.4
2019-06-27T12:16:49.794Z,3.1
2019-06-27T12:18:49.825Z,3.6
2019-06-27T12:20:49.769Z,3.1
2019-06-27T12:22:49.957Z,3.1
2019-06-27T12:24:49.955Z,3.1
2019-06-27T12:26:50.003Z,2.9
2019-06-27T12:28:49.946Z,2.7
2019-06-27T12:30:50.096Z,2.6
2019-06-27T12:32:52.985Z,2.2
2019-06-27T12:34:50.410Z,2.3
2019-06-27T12:36:50.372Z,2.3
2019-06-27T12:38:50.321Z,2.1
2019-06-27T12:40:50.398Z,2.0
2019-06-27T12:42:50.348Z,2.0
2019-06-27T12:44:50.393Z,2.2
2019-06-27T12:46:49.526Z,2.0
2019-06-27T12:48:50.468Z,2.2
2019-06-27T12:50:50.506Z,2.3
2019-06-27T12:52:50.481Z,2.1
2019-06-27T12:54:50.403Z,2.1
2019-06-27T12:56:50.496Z,2.1
2019-06-27T12:58:50.430Z,1.9
2019-06-27T13:00:50.367Z,1.9
2019-06-27T13:02:50.407Z,2.1
2019-06-27T13:04:49.858Z,2.1
2019-06-27T13:06:49.983Z,2.5
2019-06-27T13:08:50.022Z,1.7
2019-06-27T13:10:50.041Z,2.0
2019-06-27T13:12:50.197Z,2.0
2019-06-27T13:14:50.256Z,1.8
2019-06-27T13:16:50.406Z,1.6
2019-06-27T13:18:50.290Z,1.7
2019-06-27T13:20:58.784Z,1.7
2019-06-27T13:22:49.891Z,1.7
2019-06-27T13:24:49.954Z,1.5
2019-06-27T13:26:50.090Z,1.7
2019-06-27T13:28:50.184Z,1.8
2019-06-27T13:30:50.111Z,1.2
2019-06-27T13:32:50.111Z,1.2
2019-06-27T13:34:50.393Z,1.6
2019-06-27T13:36:50.419Z,1.6
2019-06-27T13:38:50.486Z,1.4
2019-06-27T13:40:50.471Z,1.3
2019-06-27T13:42:50.501Z,1.3
2019-06-27T13:44:49.656Z,1.4
2019-06-27T13:46:49.684Z,1.5
2019-06-27T13:48:49.682Z,1.3
2019-06-27T13:50:49.642Z,1.2
2019-06-27T13:52:49.705Z,1.2
2019-06-27T13:54:49.684Z,3.6
2019-06-27T13:56:49.715Z,2.0
2019-06-27T13:58:49.698Z,1.7
2019-06-27T14:00:49.745Z,1.3
2019-06-27T14:02:49.926Z,1.3
2019-06-27T14:04:57.858Z,1.9
2019-06-27T14:06:50.226Z,1.3
2019-06-27T14:08:50.217Z,1.1
2019-06-27T14:10:51.391Z,1.1
2019-06-27T14:12:50.363Z,1.0
2019-06-27T14:14:59.576Z,0.9
2019-06-27T14:16:49.636Z,1.0
2019-06-27T14:18:49.558Z,1.0
2019-06-27T14:20:49.608Z,1.0
2019-06-27T14:22:49.612Z,1.0
2019-06-27T14:24:49.653Z,1.0
2019-06-27T14:26:49.735Z,1.1
2019-06-27T14:28:49.709Z,1.0
2019-06-27T14:30:49.701Z,1.0
2019-06-27T14:32:53.642Z,1.0
2019-06-27T14:34:50.163Z,1.4
2019-06-27T14:36:54.553Z,1.1
2019-06-27T14:38:49.558Z,1.1
2019-06-27T14:40:49.628Z,1.1
2019-06-27T14:42:49.580Z,1.1
2019-06-27T14:44:49.718Z,1.2
2019-06-27T14:46:49.757Z,1.5
2019-06-27T14:48:49.723Z,1.3
2019-06-27T14:50:49.733Z,1.3
2019-06-27T14:52:49.684Z,1.4
2019-06-27T14:54:49.665Z,1.2
2019-06-27T14:56:49.878Z,1.1
2019-06-27T14:58:49.855Z,1.5
2019-06-27T15:00:49.855Z,1.5
2019-06-27T15:02:49.826Z,1.2
2019-06-27T15:04:50.221Z,1.2
2019-06-27T15:06:50.508Z,1.3
2019-06-27T15:08:49.843Z,1.3
2019-06-27T15:10:49.797Z,1.3
2019-06-27T15:12:57.752Z,1.3
2019-06-27T15:14:50.917Z,1.3
2019-06-27T15:16:50.099Z,1.3
2019-06-27T15:18:50.165Z,1.2
2019-06-27T15:20:50.137Z,1.2
2019-06-27T15:22:50.166Z,1.3
2019-06-27T15:24:50.245Z,1.3
2019-06-27T15:26:50.469Z,1.3
2019-06-27T15:28:50.432Z,1.3
2019-06-27T15:30:50.471Z,1.3
2019-06-27T15:32:50.431Z,1.5
2019-06-27T15:34:49.801Z,1.3
2019-06-27T15:36:49.859Z,1.6
2019-06-27T15:38:49.923Z,1.6
2019-06-27T15:40:49.961Z,1.3
2019-06-27T15:42:49.993Z,1.3
2019-06-27T15:44:49.930Z,1.3
2019-06-27T15:46:54.355Z,1.2
2019-06-27T15:48:50.471Z,1.2
2019-06-27T15:50:50.624Z,1.3
2019-06-27T15:52:49.689Z,1.4
2019-06-27T15:54:49.669Z,1.4
2019-06-27T15:56:49.722Z,1.4
2019-06-27T15:58:49.682Z,1.3
2019-06-27T16:00:49.721Z,1.3
2019-06-27T16:02:49.826Z,1.4
2019-06-27T16:04:50.073Z,1.3
2019-06-27T16:06:50.124Z,1.3
2019-06-27T16:08:50.261Z,1.4
2019-06-27T16:10:50.371Z,1.2
2019-06-27T16:12:50.405Z,1.3
2019-06-27T16:14:50.449Z,1.2
2019-06-27T16:16:49.567Z,1.2
2019-06-27T16:18:50.587Z,1.4
2019-06-27T16:20:49.559Z,1.5
2019-06-27T16:22:49.592Z,1.3
2019-06-27T16:24:49.583Z,1.3
2019-06-27T16:26:49.818Z,1.3
2019-06-27T16:28:49.785Z,1.4
2019-06-27T16:30:49.744Z,1.4
2019-06-27T16:32:49.836Z,1.4
2019-06-27T16:34:50.096Z,1.4
2019-06-27T16:36:50.231Z,1.4
2019-06-27T16:38:50.210Z,1.3
2019-06-27T16:40:50.250Z,1.5
2019-06-27T16:42:50.237Z,1.4
2019-06-27T16:44:50.259Z,1.4
2019-06-27T16:46:50.498Z,1.4
2019-06-27T16:48:50.496Z,1.4
2019-06-27T16:50:49.540Z,1.4
2019-06-27T16:52:50.512Z,1.5
2019-06-27T16:54:49.540Z,1.5
2019-06-27T16:56:49.591Z,1.4
2019-06-27T16:58:49.739Z,1.4
2019-06-27T17:00:49.755Z,1.4
2019-06-27T17:02:49.791Z,1.4
2019-06-27T17:04:50.072Z,1.4
2019-06-27T17:06:50.261Z,1.2
2019-06-27T17:08:50.374Z,1.5
2019-06-27T17:10:50.331Z,1.8
2019-06-27T17:12:50.314Z,1.8
2019-06-27T17:14:50.394Z,1.4
2019-06-27T17:16:50.471Z,1.5
2019-06-27T17:18:50.517Z,1.4
2019-06-27T17:20:49.522Z,1.6
2019-06-27T17:22:50.516Z,1.6
2019-06-27T17:24:50.443Z,1.5
2019-06-27T17:26:49.544Z,1.5
2019-06-27T17:28:49.542Z,1.5
2019-06-27T17:30:49.516Z,1.5
2019-06-27T17:32:50.506Z,1.6
2019-06-27T17:34:49.914Z,1.6
2019-06-27T17:36:58.354Z,1.6
2019-06-27T17:38:50.430Z,1.8
2019-06-27T17:40:50.400Z,1.8
2019-06-27T17:42:50.351Z,1.8
2019-06-27T17:44:50.400Z,1.6
2019-06-27T17:46:49.525Z,1.5
2019-06-27T17:48:50.488Z,1.5
2019-06-27T17:50:50.516Z,1.7
2019-06-27T17:52:50.444Z,1.7
2019-06-27T17:54:50.416Z,1.5
2019-06-27T17:56:49.554Z,1.7
2019-06-27T17:58:49.559Z,1.6
2019-06-27T18:00:50.515Z,1.7
2019-06-27T18:02:49.669Z,1.7
2019-06-27T18:04:50.062Z,1.5
2019-06-27T18:06:50.209Z,1.4
2019-06-27T18:08:50.254Z,1.9
2019-06-27T18:10:50.275Z,1.9
2019-06-27T18:12:50.264Z,1.5
2019-06-27T18:14:50.257Z,1.9
2019-06-27T18:16:50.270Z,1.7
2019-06-27T18:18:50.255Z,1.6
2019-06-27T18:20:50.238Z,1.6
2019-06-27T18:22:50.286Z,1.7
2019-06-27T18:24:50.336Z,1.6
2019-06-27T18:26:50.384Z,1.9
2019-06-27T18:28:50.461Z,1.6
2019-06-27T18:30:50.415Z,1.6
2019-06-27T18:32:50.379Z,1.5
2019-06-27T18:34:49.694Z,1.6
2019-06-27T18:36:49.837Z,1.5
2019-06-27T18:38:49.944Z,1.6
2019-06-27T18:40:50.009Z,1.6
2019-06-27T18:42:50.006Z,1.6
2019-06-27T18:44:50.099Z,1.6
2019-06-27T18:46:50.231Z,1.7
2019-06-27T18:48:52.268Z,1.7
2019-06-27T18:50:50.380Z,1.7
2019-06-27T18:52:50.507Z,1.7
2019-06-27T18:54:50.510Z,1.6
2019-06-27T18:56:49.692Z,1.6
2019-06-27T18:58:49.644Z,1.7
2019-06-27T19:00:49.660Z,1.7
2019-06-27T19:02:49.744Z,1.7
2019-06-27T19:04:49.948Z,1.6
2019-06-27T19:06:50.128Z,1.6
2019-06-27T19:08:50.111Z,1.6
2019-06-27T19:10:50.044Z,1.6
2019-06-27T19:12:50.038Z,1.7
2019-06-27T19:14:50.076Z,1.9
2019-06-27T19:16:50.163Z,1.9
2019-06-27T19:18:50.117Z,1.7
2019-06-27T19:20:50.037Z,1.9
2019-06-27T19:22:49.948Z,1.6
2019-06-27T19:24:49.955Z,1.9
2019-06-27T19:26:50.253Z,1.9
2019-06-27T19:28:50.464Z,2.0
2019-06-27T19:30:50.434Z,1.6
2019-06-27T19:32:50.431Z,1.8
2019-06-27T19:34:49.761Z,1.9
2019-06-27T19:36:49.814Z,1.9
2019-06-27T19:38:49.813Z,1.9
2019-06-27T19:40:49.870Z,2.6
2019-06-27T19:42:49.920Z,1.9
2019-06-27T19:44:49.898Z,1.8
2019-06-27T19:46:50.047Z,1.9
2019-06-27T19:48:50.038Z,1.9
2019-06-27T19:50:50.020Z,1.7
2019-06-27T19:52:50.152Z,1.8
2019-06-27T19:54:50.130Z,1.9
2019-06-27T19:56:50.199Z,1.9
2019-06-27T19:58:50.121Z,1.9
2019-06-27T20:00:50.175Z,1.8
2019-06-27T20:02:50.170Z,1.7
2019-06-27T20:04:50.461Z,1.9
2019-06-27T20:06:50.505Z,1.9
2019-06-27T20:08:50.499Z,1.7
2019-06-27T20:10:49.540Z,1.7
2019-06-27T20:12:49.577Z,1.7
2019-06-27T20:14:49.592Z,1.7
2019-06-27T20:16:49.636Z,2.0
2019-06-27T20:18:49.737Z,1.8
2019-06-27T20:20:49.737Z,1.9
2019-06-27T20:22:49.748Z,1.9
2019-06-27T20:24:49.722Z,1.9
2019-06-27T20:26:49.772Z,1.9
2019-06-27T20:28:49.858Z,1.5
2019-06-27T20:30:49.863Z,1.7
2019-06-27T20:32:49.838Z,1.9
2019-06-27T20:34:50.215Z,1.9
2019-06-27T20:36:50.423Z,1.9
2019-06-27T20:38:50.413Z,1.9
2019-06-27T20:40:50.400Z,1.8
2019-06-27T20:42:50.349Z,1.8
2019-06-27T20:44:50.292Z,1.8
2019-06-27T20:46:50.404Z,1.8
2019-06-27T20:48:54.142Z,1.8
2019-06-27T20:50:50.236Z,1.9
2019-06-27T20:52:50.232Z,1.8
2019-06-27T20:54:50.233Z,1.8
2019-06-27T20:56:50.431Z,1.7
2019-06-27T20:58:50.391Z,1.8
2019-06-27T21:00:50.405Z,1.9
2019-06-27T21:02:50.326Z,1.9
2019-06-27T21:04:49.661Z,1.9
2019-06-27T21:06:49.733Z,2.0
2019-06-27T21:08:52.136Z,2.0
2019-06-27T21:10:50.137Z,1.9
2019-06-27T21:12:50.151Z,1.9
2019-06-27T21:14:50.262Z,1.9
2019-06-27T21:16:49.508Z,2.0
2019-06-27T21:18:50.469Z,2.1
2019-06-27T21:20:50.486Z,2.1
2019-06-27T21:22:50.455Z,1.9
2019-06-27T21:24:50.486Z,1.9
2019-06-27T21:26:49.585Z,2.0
2019-06-27T21:28:49.578Z,2.3
2019-06-27T21:30:49.578Z,2.0
2019-06-27T21:32:49.523Z,2.0
2019-06-27T21:34:49.899Z,2.0
2019-06-27T21:36:49.975Z,2.1
2019-06-27T21:38:49.956Z,2.2
2019-06-27T21:40:50.541Z,2.0
2019-06-27T21:42:50.499Z,2.0
2019-06-27T21:44:49.524Z,2.0
2019-06-27T21:46:49.640Z,2.2
2019-06-27T21:48:49.575Z,1.9
2019-06-27T21:50:49.862Z,1.9
2019-06-27T21:52:49.850Z,2.2
2019-06-27T21:54:49.798Z,2.0
2019-06-27T21:56:49.954Z,2.1
2019-06-27T21:58:50.057Z,2.6
2019-06-27T22:00:49.981Z,2.6
2019-06-27T22:02:50.074Z,2.1
2019-06-27T22:04:50.457Z,2.0
2019-06-27T22:06:49.641Z,2.2
2019-06-27T22:08:49.662Z,2.3
2019-06-27T22:10:49.810Z,2.3
2019-06-27T22:12:49.946Z,2.3
2019-06-27T22:14:49.982Z,2.1
2019-06-27T22:16:50.090Z,2.3
2019-06-27T22:18:50.056Z,2.1
2019-06-27T22:20:50.118Z,2.1
2019-06-27T22:22:50.127Z,2.0
2019-06-27T22:24:50.156Z,2.2
2019-06-27T22:26:50.261Z,2.0
2019-06-27T22:28:50.249Z,1.9
2019-06-27T22:30:50.278Z,1.9
2019-06-27T22:32:50.247Z,1.8
2019-06-27T22:34:49.596Z,2.2
2019-06-27T22:36:49.726Z,2.0
2019-06-27T22:38:49.740Z,2.0
2019-06-27T22:40:49.720Z,2.0
2019-06-27T22:42:49.760Z,2.0
2019-06-27T22:44:49.741Z,2.0
2019-06-27T22:46:49.812Z,2.1
2019-06-27T22:48:49.915Z,2.0
2019-06-27T22:50:49.874Z,2.0
2019-06-27T22:52:49.892Z,2.0
2019-06-27T22:54:49.702Z,2.1
2019-06-27T22:56:49.851Z,2.3
2019-06-27T22:58:49.889Z,2.3
2019-06-27T23:00:49.886Z,2.3
2019-06-27T23:02:49.871Z,1.9
2019-06-27T23:04:50.186Z,2.2
2019-06-27T23:06:50.328Z,2.1
2019-06-27T23:08:50.275Z,2.1
2019-06-27T23:10:50.248Z,2.3
2019-06-27T23:12:50.410Z,2.2
2019-06-27T23:14:50.874Z,2.6
2019-06-27T23:16:50.065Z,2.8
2019-06-27T23:18:50.125Z,2.8
2019-06-27T23:20:50.106Z,2.8
2019-06-27T23:22:50.150Z,2.7
2019-06-27T23:24:50.154Z,2.8
2019-06-27T23:26:50.375Z,2.6
2019-06-27T23:28:50.407Z,2.6
2019-06-27T23:30:50.382Z,2.8
2019-06-27T23:32:50.334Z,2.8
2019-06-27T23:34:49.755Z,2.5
2019-06-27T23:36:49.977Z,2.7
2019-06-27T23:38:50.064Z,2.7
2019-06-27T23:40:50.028Z,3.1
2019-06-27T23:42:49.998Z,2.7
2019-06-27T23:44:50.072Z,2.8
2019-06-27T23:46:50.238Z,2.8
2019-06-27T23:48:50.258Z,2.8
2019-06-27T23:50:50.263Z,2.6
2019-06-27T23:52:50.201Z,2.6
2019-06-27T23:54:50.226Z,2.6
2019-06-27T23:56:50.407Z,2.8
2019-06-27T23:58:50.512Z,2.8
